sensor_id;sensor_type;location;lat;lon;timestamp;pressure;altitude;pressure_sealevel;temperature;humidity
35989;BME280;22064;42.672;23.282;2023-07-13T00:00:38;94939.81;;;22.14;100.00
35989;BME280;22064;42.672;23.282;2023-07-13T00:03:04;94932.63;;;22.06;100.00
35989;BME280;22064;42.672;23.282;2023-07-13T00:05:30;94929.81;;;22.11;100.00
35989;BME280;22064;42.672;23.282;2023-07-13T00:07:57;94931.75;;;22.19;100.00
35989;BME280;22064;42.672;23.282;2023-07-13T00:10:23;94925.00;;;22.13;100.00
35989;BME280;22064;42.672;23.282;2023-07-13T00:12:50;94935.56;;;22.04;100.00
35989;BME280;22064;42.672;23.282;2023-07-13T00:15:24;94935.56;;;22.04;100.00
35989;BME280;22064;42.672;23.282;2023-07-13T00:17:52;94922.94;;;22.01;100.00
35989;BME280;22064;42.672;23.282;2023-07-13T00:20:20;94923.81;;;22.19;100.00
35989;BME280;22064;42.672;23.282;2023-07-13T00:22:52;94927.28;;;22.37;100.00
35989;BME280;22064;42.672;23.282;2023-07-13T00:25:22;94924.00;;;22.40;100.00
35989;BME280;22064;42.672;23.282;2023-07-13T00:27:50;94921.84;;;22.51;100.00
35989;BME280;22064;42.672;23.282;2023-07-13T00:30:16;94925.28;;;22.60;100.00
35989;BME280;22064;42.672;23.282;2023-07-13T00:32:43;94923.56;;;22.64;100.00
35989;BME280;22064;42.672;23.282;2023-07-13T00:35:10;94914.81;;;22.55;100.00
35989;BME280;22064;42.672;23.282;2023-07-13T00:37:35;94915.44;;;22.60;100.00
35989;BME280;22064;42.672;23.282;2023-07-13T00:40:05;94915.72;;;22.42;100.00
35989;BME280;22064;42.672;23.282;2023-07-13T00:42:32;94923.91;;;22.14;100.00
35989;BME280;22064;42.672;23.282;2023-07-13T00:47:39;94924.03;;;22.00;100.00
35989;BME280;22064;42.672;23.282;2023-07-13T00:50:10;94919.00;;;21.90;100.00
35989;BME280;22064;42.672;23.282;2023-07-13T00:52:40;94927.22;;;21.80;100.00
35989;BME280;22064;42.672;23.282;2023-07-13T00:55:09;94927.97;;;21.80;100.00
35989;BME280;22064;42.672;23.282;2023-07-13T00:57:36;94932.28;;;21.67;100.00
35989;BME280;22064;42.672;23.282;2023-07-13T01:00:04;94925.53;;;21.53;100.00
35989;BME280;22064;42.672;23.282;2023-07-13T01:02:33;94916.63;;;21.49;100.00
35989;BME280;22064;42.672;23.282;2023-07-13T01:04:59;94914.13;;;21.43;100.00
35989;BME280;22064;42.672;23.282;2023-07-13T01:07:27;94914.63;;;21.32;100.00
35989;BME280;22064;42.672;23.282;2023-07-13T01:09:56;94909.59;;;21.21;100.00
35989;BME280;22064;42.672;23.282;2023-07-13T01:12:22;94923.97;;;21.29;100.00
35989;BME280;22064;42.672;23.282;2023-07-13T01:14:48;94914.84;;;21.35;100.00
35989;BME280;22064;42.672;23.282;2023-07-13T01:17:14;94918.44;;;21.39;100.00
35989;BME280;22064;42.672;23.282;2023-07-13T01:19:45;94914.22;;;21.38;100.00
35989;BME280;22064;42.672;23.282;2023-07-13T01:22:18;94911.09;;;21.14;100.00
35989;BME280;22064;42.672;23.282;2023-07-13T01:24:46;94905.13;;;21.08;100.00
35989;BME280;22064;42.672;23.282;2023-07-13T01:27:15;94910.66;;;20.98;100.00
35989;BME280;22064;42.672;23.282;2023-07-13T01:29:43;94896.72;;;21.06;100.00
35989;BME280;22064;42.672;23.282;2023-07-13T01:32:15;94912.03;;;20.95;100.00
35989;BME280;22064;42.672;23.282;2023-07-13T01:34:42;94900.78;;;20.90;100.00
35989;BME280;22064;42.672;23.282;2023-07-13T01:37:09;94908.25;;;21.10;100.00
35989;BME280;22064;42.672;23.282;2023-07-13T01:39:36;94909.53;;;21.13;100.00
35989;BME280;22064;42.672;23.282;2023-07-13T01:42:02;94901.34;;;21.23;100.00
35989;BME280;22064;42.672;23.282;2023-07-13T01:44:28;94892.66;;;21.31;100.00
35989;BME280;22064;42.672;23.282;2023-07-13T01:46:54;94897.13;;;21.22;100.00
35989;BME280;22064;42.672;23.282;2023-07-13T01:49:20;94890.25;;;21.21;100.00
35989;BME280;22064;42.672;23.282;2023-07-13T01:51:46;94904.50;;;21.34;100.00
35989;BME280;22064;42.672;23.282;2023-07-13T01:54:12;94897.97;;;21.31;100.00
35989;BME280;22064;42.672;23.282;2023-07-13T01:56:38;94908.31;;;21.41;100.00
35989;BME280;22064;42.672;23.282;2023-07-13T01:59:05;94900.66;;;21.40;100.00
35989;BME280;22064;42.672;23.282;2023-07-13T02:01:31;94885.94;;;21.25;100.00
35989;BME280;22064;42.672;23.282;2023-07-13T02:03:57;94909.00;;;21.33;100.00
35989;BME280;22064;42.672;23.282;2023-07-13T02:06:23;94901.06;;;21.33;100.00
35989;BME280;22064;42.672;23.282;2023-07-13T02:08:49;94912.19;;;21.35;100.00
35989;BME280;22064;42.672;23.282;2023-07-13T02:11:15;94918.28;;;20.99;100.00
35989;BME280;22064;42.672;23.282;2023-07-13T02:13:41;94916.28;;;20.60;100.00
35989;BME280;22064;42.672;23.282;2023-07-13T02:16:06;94923.25;;;20.42;100.00
35989;BME280;22064;42.672;23.282;2023-07-13T02:18:32;94916.91;;;20.29;100.00
35989;BME280;22064;42.672;23.282;2023-07-13T02:20:58;94910.50;;;20.30;100.00
35989;BME280;22064;42.672;23.282;2023-07-13T02:23:24;94907.28;;;20.47;100.00
35989;BME280;22064;42.672;23.282;2023-07-13T02:25:55;94918.84;;;20.38;100.00
35989;BME280;22064;42.672;23.282;2023-07-13T02:28:21;94916.47;;;20.50;100.00
35989;BME280;22064;42.672;23.282;2023-07-13T02:30:47;94906.50;;;20.47;100.00
35989;BME280;22064;42.672;23.282;2023-07-13T02:33:13;94911.41;;;20.53;100.00
35989;BME280;22064;42.672;23.282;2023-07-13T02:35:40;94923.69;;;20.72;100.00
35989;BME280;22064;42.672;23.282;2023-07-13T02:38:06;94917.81;;;20.75;100.00
35989;BME280;22064;42.672;23.282;2023-07-13T02:40:32;94917.41;;;20.82;100.00
35989;BME280;22064;42.672;23.282;2023-07-13T02:43:02;94915.94;;;20.75;100.00
35989;BME280;22064;42.672;23.282;2023-07-13T02:45:30;94922.28;;;20.88;100.00
35989;BME280;22064;42.672;23.282;2023-07-13T02:47:56;94910.72;;;20.84;100.00
35989;BME280;22064;42.672;23.282;2023-07-13T02:50:22;94918.41;;;20.72;100.00
35989;BME280;22064;42.672;23.282;2023-07-13T02:52:48;94917.22;;;20.78;100.00
35989;BME280;22064;42.672;23.282;2023-07-13T02:55:14;94919.72;;;20.83;100.00
35989;BME280;22064;42.672;23.282;2023-07-13T02:57:40;94929.59;;;20.69;100.00
35989;BME280;22064;42.672;23.282;2023-07-13T03:00:07;94927.91;;;20.73;100.00
35989;BME280;22064;42.672;23.282;2023-07-13T03:02:34;94923.53;;;20.55;100.00
35989;BME280;22064;42.672;23.282;2023-07-13T03:05:01;94928.56;;;20.28;100.00
35989;BME280;22064;42.672;23.282;2023-07-13T03:07:27;94926.81;;;20.10;100.00
35989;BME280;22064;42.672;23.282;2023-07-13T03:09:57;94928.63;;;20.37;100.00
35989;BME280;22064;42.672;23.282;2023-07-13T03:12:26;94920.81;;;20.32;100.00
35989;BME280;22064;42.672;23.282;2023-07-13T03:14:53;94931.50;;;20.13;100.00
35989;BME280;22064;42.672;23.282;2023-07-13T03:17:19;94924.56;;;20.03;100.00
35989;BME280;22064;42.672;23.282;2023-07-13T03:19:45;94932.19;;;19.91;100.00
35989;BME280;22064;42.672;23.282;2023-07-13T03:22:16;94933.66;;;19.97;100.00
35989;BME280;22064;42.672;23.282;2023-07-13T03:24:43;94928.44;;;20.06;100.00
35989;BME280;22064;42.672;23.282;2023-07-13T03:27:09;94931.19;;;20.15;100.00
35989;BME280;22064;42.672;23.282;2023-07-13T03:29:38;94926.13;;;20.04;100.00
35989;BME280;22064;42.672;23.282;2023-07-13T03:32:04;94933.84;;;20.28;100.00
35989;BME280;22064;42.672;23.282;2023-07-13T03:34:31;94937.84;;;20.40;100.00
35989;BME280;22064;42.672;23.282;2023-07-13T03:36:58;94945.56;;;20.64;100.00
35989;BME280;22064;42.672;23.282;2023-07-13T03:39:24;94951.50;;;21.06;100.00
35989;BME280;22064;42.672;23.282;2023-07-13T03:41:54;94943.44;;;21.33;100.00
35989;BME280;22064;42.672;23.282;2023-07-13T03:44:20;94942.66;;;21.55;100.00
35989;BME280;22064;42.672;23.282;2023-07-13T03:46:50;94928.84;;;21.98;100.00
35989;BME280;22064;42.672;23.282;2023-07-13T03:49:16;94951.25;;;22.23;100.00
35989;BME280;22064;42.672;23.282;2023-07-13T03:51:42;94939.94;;;22.57;100.00
35989;BME280;22064;42.672;23.282;2023-07-13T03:54:08;94934.50;;;22.71;100.00
35989;BME280;22064;42.672;23.282;2023-07-13T03:56:34;94939.03;;;22.79;100.00
35989;BME280;22064;42.672;23.282;2023-07-13T03:59:02;94934.97;;;22.56;100.00
35989;BME280;22064;42.672;23.282;2023-07-13T04:01:29;94945.13;;;22.80;100.00
35989;BME280;22064;42.672;23.282;2023-07-13T04:03:55;94939.22;;;22.17;100.00
35989;BME280;22064;42.672;23.282;2023-07-13T04:06:28;94928.06;;;21.98;100.00
35989;BME280;22064;42.672;23.282;2023-07-13T04:08:57;94928.56;;;22.00;100.00
35989;BME280;22064;42.672;23.282;2023-07-13T04:11:27;94912.47;;;21.65;100.00
35989;BME280;22064;42.672;23.282;2023-07-13T04:13:55;94932.38;;;22.16;100.00
35989;BME280;22064;42.672;23.282;2023-07-13T04:16:21;94935.28;;;22.63;100.00
35989;BME280;22064;42.672;23.282;2023-07-13T04:18:48;94930.75;;;22.72;100.00
35989;BME280;22064;42.672;23.282;2023-07-13T04:21:15;94933.72;;;22.79;100.00
35989;BME280;22064;42.672;23.282;2023-07-13T04:23:41;94942.16;;;22.81;100.00
35989;BME280;22064;42.672;23.282;2023-07-13T04:26:08;94936.88;;;23.16;100.00
35989;BME280;22064;42.672;23.282;2023-07-13T04:28:34;94950.25;;;23.55;100.00
35989;BME280;22064;42.672;23.282;2023-07-13T04:31:00;94950.72;;;23.65;100.00
35989;BME280;22064;42.672;23.282;2023-07-13T04:33:27;94957.16;;;24.11;100.00
35989;BME280;22064;42.672;23.282;2023-07-13T04:35:55;94958.81;;;24.25;100.00
35989;BME280;22064;42.672;23.282;2023-07-13T04:38:23;94955.59;;;24.40;100.00
35989;BME280;22064;42.672;23.282;2023-07-13T04:40:51;94961.47;;;24.25;100.00
35989;BME280;22064;42.672;23.282;2023-07-13T04:43:18;94966.75;;;23.95;100.00
35989;BME280;22064;42.672;23.282;2023-07-13T04:45:44;94965.47;;;23.19;100.00
35989;BME280;22064;42.672;23.282;2023-07-13T04:48:10;94953.53;;;22.65;100.00
35989;BME280;22064;42.672;23.282;2023-07-13T04:50:37;94960.41;;;22.66;100.00
35989;BME280;22064;42.672;23.282;2023-07-13T04:53:03;94969.38;;;22.30;100.00
35989;BME280;22064;42.672;23.282;2023-07-13T04:55:30;94963.34;;;22.47;100.00
35989;BME280;22064;42.672;23.282;2023-07-13T04:57:57;94959.66;;;22.65;100.00
35989;BME280;22064;42.672;23.282;2023-07-13T05:00:25;94965.78;;;23.09;100.00
35989;BME280;22064;42.672;23.282;2023-07-13T05:02:51;94966.56;;;23.10;100.00
35989;BME280;22064;42.672;23.282;2023-07-13T05:05:17;94970.63;;;23.07;100.00
35989;BME280;22064;42.672;23.282;2023-07-13T05:07:43;94976.72;;;23.25;100.00
35989;BME280;22064;42.672;23.282;2023-07-13T05:10:09;94970.31;;;23.17;100.00
35989;BME280;22064;42.672;23.282;2023-07-13T05:12:35;94970.25;;;22.65;100.00
35989;BME280;22064;42.672;23.282;2023-07-13T05:15:02;94979.72;;;22.40;100.00
35989;BME280;22064;42.672;23.282;2023-07-13T05:17:28;94981.88;;;22.29;100.00
35989;BME280;22064;42.672;23.282;2023-07-13T05:19:54;94987.97;;;22.39;100.00
35989;BME280;22064;42.672;23.282;2023-07-13T05:22:21;94974.91;;;22.51;100.00
35989;BME280;22064;42.672;23.282;2023-07-13T05:24:47;94982.28;;;22.63;100.00
35989;BME280;22064;42.672;23.282;2023-07-13T05:27:13;94976.34;;;22.83;100.00
35989;BME280;22064;42.672;23.282;2023-07-13T05:29:39;94985.94;;;23.01;100.00
35989;BME280;22064;42.672;23.282;2023-07-13T05:32:05;94990.00;;;23.34;100.00
35989;BME280;22064;42.672;23.282;2023-07-13T05:34:31;94992.16;;;23.58;100.00
35989;BME280;22064;42.672;23.282;2023-07-13T05:36:57;94986.97;;;24.26;100.00
35989;BME280;22064;42.672;23.282;2023-07-13T05:39:23;94983.56;;;24.55;100.00
35989;BME280;22064;42.672;23.282;2023-07-13T05:41:50;94977.66;;;24.49;100.00
35989;BME280;22064;42.672;23.282;2023-07-13T05:44:16;94994.53;;;24.53;100.00
35989;BME280;22064;42.672;23.282;2023-07-13T05:46:42;94989.59;;;24.34;100.00
35989;BME280;22064;42.672;23.282;2023-07-13T05:49:08;94986.94;;;24.34;100.00
35989;BME280;22064;42.672;23.282;2023-07-13T05:51:34;94988.06;;;24.33;100.00
35989;BME280;22064;42.672;23.282;2023-07-13T05:54:00;94984.63;;;24.62;100.00
35989;BME280;22064;42.672;23.282;2023-07-13T05:56:26;94988.69;;;25.10;100.00
35989;BME280;22064;42.672;23.282;2023-07-13T05:58:53;94987.16;;;25.30;100.00
35989;BME280;22064;42.672;23.282;2023-07-13T06:01:19;94980.28;;;25.42;100.00
35989;BME280;22064;42.672;23.282;2023-07-13T06:03:46;94981.53;;;25.44;100.00
35989;BME280;22064;42.672;23.282;2023-07-13T06:06:13;94964.50;;;25.70;100.00
35989;BME280;22064;42.672;23.282;2023-07-13T06:08:39;94980.25;;;25.84;100.00
35989;BME280;22064;42.672;23.282;2023-07-13T06:11:08;94979.69;;;25.90;100.00
35989;BME280;22064;42.672;23.282;2023-07-13T06:13:35;94986.72;;;26.07;100.00
35989;BME280;22064;42.672;23.282;2023-07-13T06:16:02;94983.50;;;26.38;100.00
35989;BME280;22064;42.672;23.282;2023-07-13T06:18:33;94987.97;;;26.46;100.00
35989;BME280;22064;42.672;23.282;2023-07-13T06:20:59;94989.78;;;26.55;100.00
35989;BME280;22064;42.672;23.282;2023-07-13T06:23:26;94986.75;;;26.81;100.00
35989;BME280;22064;42.672;23.282;2023-07-13T06:25:52;94985.47;;;27.03;100.00
35989;BME280;22064;42.672;23.282;2023-07-13T06:28:18;94986.75;;;27.33;100.00
35989;BME280;22064;42.672;23.282;2023-07-13T06:30:44;95000.38;;;27.72;100.00
35989;BME280;22064;42.672;23.282;2023-07-13T06:33:10;94992.09;;;27.61;98.73
35989;BME280;22064;42.672;23.282;2023-07-13T06:35:35;94985.34;;;27.80;98.93
35989;BME280;22064;42.672;23.282;2023-07-13T06:38:01;94979.09;;;27.76;94.39
35989;BME280;22064;42.672;23.282;2023-07-13T06:40:28;94985.19;;;27.89;87.80
35989;BME280;22064;42.672;23.282;2023-07-13T06:42:56;94978.03;;;27.93;83.90
35989;BME280;22064;42.672;23.282;2023-07-13T06:45:22;94982.25;;;27.94;82.67
35989;BME280;22064;42.672;23.282;2023-07-13T06:47:47;94981.84;;;28.07;74.73
35989;BME280;22064;42.672;23.282;2023-07-13T06:50:14;94974.50;;;28.20;73.60
35989;BME280;22064;42.672;23.282;2023-07-13T06:52:39;94972.84;;;28.47;70.89
35989;BME280;22064;42.672;23.282;2023-07-13T06:55:05;94976.47;;;28.23;72.18
35989;BME280;22064;42.672;23.282;2023-07-13T06:57:31;94965.25;;;28.33;70.06
35989;BME280;22064;42.672;23.282;2023-07-13T06:59:57;94977.44;;;28.47;69.32
35989;BME280;22064;42.672;23.282;2023-07-13T07:02:23;94979.72;;;28.80;65.17
35989;BME280;22064;42.672;23.282;2023-07-13T07:04:49;94982.34;;;28.61;65.39
35989;BME280;22064;42.672;23.282;2023-07-13T07:07:15;94983.59;;;28.83;62.43
35989;BME280;22064;42.672;23.282;2023-07-13T07:09:41;94983.31;;;29.04;61.85
35989;BME280;22064;42.672;23.282;2023-07-13T07:12:07;94975.47;;;29.14;61.52
35989;BME280;22064;42.672;23.282;2023-07-13T07:14:33;94973.22;;;29.16;62.00
35989;BME280;22064;42.672;23.282;2023-07-13T07:17:00;94963.34;;;29.01;63.26
35989;BME280;22064;42.672;23.282;2023-07-13T07:19:27;94973.94;;;29.13;63.35
35989;BME280;22064;42.672;23.282;2023-07-13T07:21:54;94965.44;;;29.50;59.47
35989;BME280;22064;42.672;23.282;2023-07-13T07:24:19;94963.78;;;29.22;59.91
35989;BME280;22064;42.672;23.282;2023-07-13T07:26:45;94965.31;;;29.23;60.54
35989;BME280;22064;42.672;23.282;2023-07-13T07:29:11;94971.25;;;29.33;60.24
35989;BME280;22064;42.672;23.282;2023-07-13T07:31:37;94968.97;;;29.74;57.98
35989;BME280;22064;42.672;23.282;2023-07-13T07:34:03;94970.59;;;30.01;56.97
35989;BME280;22064;42.672;23.282;2023-07-13T07:36:29;94970.00;;;30.11;57.57
35989;BME280;22064;42.672;23.282;2023-07-13T07:38:55;94962.34;;;29.90;58.75
35989;BME280;22064;42.672;23.282;2023-07-13T07:41:21;94975.22;;;30.24;55.76
35989;BME280;22064;42.672;23.282;2023-07-13T07:43:47;94962.25;;;30.29;56.66
35989;BME280;22064;42.672;23.282;2023-07-13T07:46:13;94952.63;;;30.05;57.56
35989;BME280;22064;42.672;23.282;2023-07-13T07:48:38;94961.59;;;30.13;58.34
35989;BME280;22064;42.672;23.282;2023-07-13T07:51:04;94956.28;;;30.17;58.96
35989;BME280;22064;42.672;23.282;2023-07-13T07:53:31;94940.75;;;30.56;56.62
35989;BME280;22064;42.672;23.282;2023-07-13T07:55:56;94963.72;;;30.76;54.50
35989;BME280;22064;42.672;23.282;2023-07-13T07:58:22;94951.47;;;30.52;55.61
35989;BME280;22064;42.672;23.282;2023-07-13T08:00:48;94945.31;;;30.52;54.75
35989;BME280;22064;42.672;23.282;2023-07-13T08:03:14;94931.13;;;30.51;54.62
35989;BME280;22064;42.672;23.282;2023-07-13T08:05:40;94938.25;;;30.67;54.76
35989;BME280;22064;42.672;23.282;2023-07-13T08:08:06;94922.97;;;30.44;55.42
35989;BME280;22064;42.672;23.282;2023-07-13T08:10:35;94919.84;;;30.42;55.83
35989;BME280;22064;42.672;23.282;2023-07-13T08:13:01;94920.00;;;30.53;56.03
35989;BME280;22064;42.672;23.282;2023-07-13T08:15:28;94923.66;;;30.68;56.21
35989;BME280;22064;42.672;23.282;2023-07-13T08:17:55;94926.66;;;30.89;56.27
35989;BME280;22064;42.672;23.282;2023-07-13T08:20:21;94920.44;;;30.81;56.02
35989;BME280;22064;42.672;23.282;2023-07-13T08:22:47;94924.84;;;30.70;55.76
35989;BME280;22064;42.672;23.282;2023-07-13T08:25:13;94916.00;;;30.96;56.72
35989;BME280;22064;42.672;23.282;2023-07-13T08:27:39;94913.25;;;31.23;53.78
35989;BME280;22064;42.672;23.282;2023-07-13T08:30:05;94914.94;;;31.35;53.78
35989;BME280;22064;42.672;23.282;2023-07-13T08:32:32;94917.88;;;31.26;53.62
35989;BME280;22064;42.672;23.282;2023-07-13T08:34:58;94917.56;;;31.31;54.36
35989;BME280;22064;42.672;23.282;2023-07-13T08:37:24;94903.81;;;31.40;53.40
35989;BME280;22064;42.672;23.282;2023-07-13T08:39:50;94907.41;;;31.51;51.63
35989;BME280;22064;42.672;23.282;2023-07-13T08:42:26;94907.88;;;31.60;50.06
35989;BME280;22064;42.672;23.282;2023-07-13T08:45:28;94906.03;;;31.68;49.98
35989;BME280;22064;42.672;23.282;2023-07-13T08:48:03;94902.31;;;31.83;48.96
35989;BME280;22064;42.672;23.282;2023-07-13T08:50:37;94907.56;;;31.65;49.72
35989;BME280;22064;42.672;23.282;2023-07-13T08:53:09;94910.91;;;31.96;49.64
35989;BME280;22064;42.672;23.282;2023-07-13T08:55:38;94906.72;;;31.98;49.05
35989;BME280;22064;42.672;23.282;2023-07-13T08:58:12;94913.50;;;32.33;47.96
35989;BME280;22064;42.672;23.282;2023-07-13T09:03:42;94927.19;;;31.69;49.62
35989;BME280;22064;42.672;23.282;2023-07-13T09:06:13;94933.25;;;31.96;49.39
35989;BME280;22064;42.672;23.282;2023-07-13T09:09:18;94936.66;;;32.41;47.63
35989;BME280;22064;42.672;23.282;2023-07-13T09:14:42;94938.16;;;32.35;46.54
35989;BME280;22064;42.672;23.282;2023-07-13T09:17:32;94926.84;;;32.67;46.12
35989;BME280;22064;42.672;23.282;2023-07-13T09:22:43;94936.91;;;32.77;45.90
35989;BME280;22064;42.672;23.282;2023-07-13T09:27:40;94931.69;;;33.06;45.20
35989;BME280;22064;42.672;23.282;2023-07-13T09:32:42;94931.78;;;32.58;46.79
35989;BME280;22064;42.672;23.282;2023-07-13T09:35:12;94932.00;;;32.94;45.09
35989;BME280;22064;42.672;23.282;2023-07-13T09:37:43;94930.22;;;33.26;40.02
35989;BME280;22064;42.672;23.282;2023-07-13T09:43:15;94912.63;;;33.75;43.40
35989;BME280;22064;42.672;23.282;2023-07-13T09:45:45;94922.66;;;34.00;40.60
35989;BME280;22064;42.672;23.282;2023-07-13T09:48:12;94918.81;;;33.94;40.77
35989;BME280;22064;42.672;23.282;2023-07-13T09:50:39;94908.63;;;33.30;41.32
35989;BME280;22064;42.672;23.282;2023-07-13T09:53:18;94906.34;;;33.35;41.34
35989;BME280;22064;42.672;23.282;2023-07-13T09:55:48;94901.41;;;33.63;39.12
35989;BME280;22064;42.672;23.282;2023-07-13T09:58:17;94901.06;;;33.68;34.64
35989;BME280;22064;42.672;23.282;2023-07-13T10:00:59;94899.09;;;33.54;33.82
35989;BME280;22064;42.672;23.282;2023-07-13T10:03:31;94901.38;;;33.52;32.04
35989;BME280;22064;42.672;23.282;2023-07-13T10:06:12;94894.09;;;33.56;31.94
35989;BME280;22064;42.672;23.282;2023-07-13T10:08:38;94877.81;;;33.38;31.61
35989;BME280;22064;42.672;23.282;2023-07-13T10:11:19;94884.38;;;33.37;31.67
35989;BME280;22064;42.672;23.282;2023-07-13T10:13:53;94877.13;;;33.66;32.56
35989;BME280;22064;42.672;23.282;2023-07-13T10:16:22;94882.13;;;33.82;31.86
35989;BME280;22064;42.672;23.282;2023-07-13T10:18:53;94893.31;;;33.59;31.42
35989;BME280;22064;42.672;23.282;2023-07-13T10:21:30;94891.78;;;33.79;32.36
35989;BME280;22064;42.672;23.282;2023-07-13T10:24:06;94884.44;;;33.69;31.05
35989;BME280;22064;42.672;23.282;2023-07-13T10:26:41;94878.69;;;33.82;31.46
35989;BME280;22064;42.672;23.282;2023-07-13T10:29:14;94877.41;;;33.18;31.88
35989;BME280;22064;42.672;23.282;2023-07-13T10:31:41;94877.81;;;33.38;31.55
35989;BME280;22064;42.672;23.282;2023-07-13T10:34:11;94877.13;;;33.80;31.94
35989;BME280;22064;42.672;23.282;2023-07-13T10:36:41;94876.72;;;33.50;32.02
35989;BME280;22064;42.672;23.282;2023-07-13T10:39:14;94866.25;;;33.41;31.86
35989;BME280;22064;42.672;23.282;2023-07-13T10:41:42;94868.25;;;33.87;32.06
35989;BME280;22064;42.672;23.282;2023-07-13T10:44:30;94871.31;;;33.64;31.59
35989;BME280;22064;42.672;23.282;2023-07-13T10:46:59;94865.19;;;33.74;32.05
35989;BME280;22064;42.672;23.282;2023-07-13T10:49:31;94856.69;;;33.87;30.70
35989;BME280;22064;42.672;23.282;2023-07-13T10:51:58;94856.31;;;33.99;31.46
35989;BME280;22064;42.672;23.282;2023-07-13T10:54:33;94852.06;;;33.84;31.98
35989;BME280;22064;42.672;23.282;2023-07-13T10:59:38;94842.41;;;34.18;30.73
35989;BME280;22064;42.672;23.282;2023-07-13T11:04:44;94825.22;;;34.86;30.08
35989;BME280;22064;42.672;23.282;2023-07-13T11:07:25;94831.00;;;34.91;30.29
35989;BME280;22064;42.672;23.282;2023-07-13T11:09:58;94831.22;;;35.26;30.72
35989;BME280;22064;42.672;23.282;2023-07-13T11:17:54;94818.00;;;35.35;30.12
35989;BME280;22064;42.672;23.282;2023-07-13T11:20:46;94828.22;;;35.09;30.13
35989;BME280;22064;42.672;23.282;2023-07-13T11:25:42;94822.34;;;34.05;31.21
35989;BME280;22064;42.672;23.282;2023-07-13T11:30:43;94816.94;;;34.09;32.83
35989;BME280;22064;42.672;23.282;2023-07-13T11:33:11;94809.63;;;34.09;31.73
35989;BME280;22064;42.672;23.282;2023-07-13T11:35:42;94808.47;;;34.07;32.59
35989;BME280;22064;42.672;23.282;2023-07-13T11:38:15;94810.75;;;33.97;31.97
35989;BME280;22064;42.672;23.282;2023-07-13T11:40:44;94779.53;;;33.93;31.96
35989;BME280;22064;42.672;23.282;2023-07-13T11:43:14;94801.47;;;34.23;32.63
35989;BME280;22064;42.672;23.282;2023-07-13T11:45:40;94802.28;;;34.02;32.15
35989;BME280;22064;42.672;23.282;2023-07-13T11:48:18;94800.34;;;33.96;31.18
35989;BME280;22064;42.672;23.282;2023-07-13T11:50:53;94791.06;;;34.22;31.73
35989;BME280;22064;42.672;23.282;2023-07-13T11:53:20;94803.41;;;34.01;31.34
35989;BME280;22064;42.672;23.282;2023-07-13T11:55:47;94798.44;;;34.03;31.82
35989;BME280;22064;42.672;23.282;2023-07-13T11:58:18;94778.34;;;34.12;31.19
35989;BME280;22064;42.672;23.282;2023-07-13T12:00:46;94757.00;;;34.39;31.24
35989;BME280;22064;42.672;23.282;2023-07-13T12:03:18;94784.44;;;34.37;31.14
35989;BME280;22064;42.672;23.282;2023-07-13T12:06:03;94770.88;;;34.62;29.63
35989;BME280;22064;42.672;23.282;2023-07-13T12:08:31;94764.31;;;34.45;29.60
35989;BME280;22064;42.672;23.282;2023-07-13T12:11:05;94759.19;;;34.76;29.09
35989;BME280;22064;42.672;23.282;2023-07-13T12:13:37;94761.41;;;34.96;30.05
35989;BME280;22064;42.672;23.282;2023-07-13T12:16:15;94777.63;;;34.99;30.29
35989;BME280;22064;42.672;23.282;2023-07-13T12:18:43;94748.22;;;35.01;29.92
35989;BME280;22064;42.672;23.282;2023-07-13T12:21:17;94752.97;;;34.83;28.99
35989;BME280;22064;42.672;23.282;2023-07-13T12:23:44;94742.44;;;35.03;29.88
35989;BME280;22064;42.672;23.282;2023-07-13T12:26:15;94750.34;;;35.35;29.79
35989;BME280;22064;42.672;23.282;2023-07-13T12:28:51;94739.75;;;35.58;29.75
35989;BME280;22064;42.672;23.282;2023-07-13T12:34:06;94718.94;;;35.90;28.42
35989;BME280;22064;42.672;23.282;2023-07-13T12:36:35;94729.59;;;35.66;28.25
35989;BME280;22064;42.672;23.282;2023-07-13T12:41:50;94727.91;;;35.83;29.12
35989;BME280;22064;42.672;23.282;2023-07-13T12:44:27;94727.13;;;35.37;28.81
35989;BME280;22064;42.672;23.282;2023-07-13T12:47:02;94726.22;;;35.51;28.89
35989;BME280;22064;42.672;23.282;2023-07-13T12:49:32;94725.81;;;36.32;27.58
35989;BME280;22064;42.672;23.282;2023-07-13T12:52:09;94718.22;;;36.20;27.19
35989;BME280;22064;42.672;23.282;2023-07-13T12:54:39;94712.03;;;36.19;27.75
35989;BME280;22064;42.672;23.282;2023-07-13T12:57:05;94721.97;;;35.95;28.14
35989;BME280;22064;42.672;23.282;2023-07-13T12:59:34;94694.59;;;35.86;29.01
35989;BME280;22064;42.672;23.282;2023-07-13T13:02:21;94715.94;;;36.18;28.03
35989;BME280;22064;42.672;23.282;2023-07-13T13:04:48;94710.47;;;36.56;27.17
35989;BME280;22064;42.672;23.282;2023-07-13T13:07:14;94693.56;;;36.41;26.98
35989;BME280;22064;42.672;23.282;2023-07-13T13:09:40;94694.22;;;36.22;27.14
35989;BME280;22064;42.672;23.282;2023-07-13T13:12:07;94699.56;;;36.60;27.51
35989;BME280;22064;42.672;23.282;2023-07-13T13:14:33;94698.41;;;36.61;27.45
35989;BME280;22064;42.672;23.282;2023-07-13T13:16:59;94707.44;;;36.47;27.29
35989;BME280;22064;42.672;23.282;2023-07-13T13:19:28;94693.75;;;36.27;27.49
35989;BME280;22064;42.672;23.282;2023-07-13T13:21:56;94687.41;;;36.98;27.22
35989;BME280;22064;42.672;23.282;2023-07-13T13:24:26;94695.78;;;36.81;27.12
35989;BME280;22064;42.672;23.282;2023-07-13T13:26:53;94688.03;;;37.57;26.24
35989;BME280;22064;42.672;23.282;2023-07-13T13:29:22;94685.31;;;37.57;26.68
35989;BME280;22064;42.672;23.282;2023-07-13T13:31:52;94693.97;;;36.97;25.09